Time;durP1;ratioP1;P1;durP2;ratioP2;P2;SDS_P1;SDS_P2;PMS_P1;PMS_P2;Temp;Humidity;BMP_temperature;BMP_pressure;BME280_temperature;BME280_humidity;BME280_pressure;Samples;Min_cycle;Max_cycle;Signal;HPM_P1;HPM_P2
2022/08/10 00:00:22;;;;;;;7.95;5.53;;;;;;;17.04;73.82;100078.06;6152552;22;20022;-63
2022/08/10 00:02:58;;;;;;;10.57;6.30;;;;;;;17.10;74.14;100073.97;6228471;22;20015;-66
2022/08/10 00:05:24;;;;;;;7.70;5.75;;;;;;;17.03;74.93;100072.84;6230010;22;20102;-65
2022/08/10 00:07:50;;;;;;;11.18;6.18;;;;;;;17.00;75.65;100073.09;6229627;22;20016;-66
2022/08/10 00:10:16;;;;;;;11.90;5.95;;;;;;;17.00;75.80;100073.09;6229501;22;20050;-66
2022/08/10 00:12:42;;;;;;;14.40;5.82;;;;;;;16.97;76.14;100087.69;6202476;22;20443;-65
2022/08/10 00:15:10;;;;;;;11.20;6.18;;;;;;;16.97;76.86;100078.75;6229158;22;20015;-65
2022/08/10 00:17:35;;;;;;;13.35;5.80;;;;;;;16.94;77.03;100077.19;6229551;22;20352;-64
2022/08/10 00:20:01;;;;;;;9.10;5.88;;;;;;;16.94;76.82;100079.88;6229320;22;20019;-65
2022/08/10 00:22:28;;;;;;;7.35;5.25;;;;;;;16.94;77.03;100074.50;6202075;22;20051;-65
2022/08/10 00:24:56;;;;;;;12.85;7.40;;;;;;;16.95;77.15;100078.03;6202471;22;20019;-65
2022/08/10 00:27:21;;;;;;;8.77;5.57;;;;;;;16.95;77.49;100069.97;6202486;22;20346;-66
2022/08/10 00:29:45;;;;;;;12.13;6.57;;;;;;;16.96;77.49;100082.44;6202502;22;20355;-67
2022/08/10 00:32:10;;;;;;;10.60;6.07;;;;;;;16.96;77.07;100077.06;6229540;22;20304;-66
2022/08/10 00:34:35;;;;;;;11.90;5.60;;;;;;;16.95;77.56;100078.91;6229514;22;20684;-66
2022/08/10 00:37:00;;;;;;;7.18;4.70;;;;;;;16.96;77.18;100079.75;6228974;22;20324;-66
2022/08/10 00:39:27;;;;;;;15.63;5.22;;;;;;;16.94;77.18;100082.59;6202265;22;20011;-64
2022/08/10 00:41:52;;;;;;;10.68;5.18;;;;;;;16.93;77.55;100082.75;6202178;22;20362;-65
2022/08/10 00:44:17;;;;;;;11.38;6.25;;;;;;;16.91;77.11;100084.72;6201787;22;20327;-67
2022/08/10 00:46:42;;;;;;;8.23;5.60;;;;;;;16.90;77.10;100078.47;6202345;22;20085;-67
2022/08/10 00:49:06;;;;;;;18.77;4.70;;;;;;;16.90;77.31;100078.47;6201821;22;20102;-66
2022/08/10 00:51:31;;;;;;;9.85;5.00;;;;;;;16.90;76.67;100083.88;6202154;22;20443;-67
2022/08/10 00:53:56;;;;;;;7.00;4.80;;;;;;;16.91;76.70;100072.09;6202092;22;20499;-66
2022/08/10 00:56:21;;;;;;;9.02;4.20;;;;;;;16.92;76.88;100076.50;6229241;22;20066;-66
2022/08/10 00:58:46;;;;;;;7.90;4.55;;;;;;;16.91;76.50;100073.94;6228971;22;20518;-66
2022/08/10 01:01:11;;;;;;;6.43;4.03;;;;;;;16.90;76.60;100077.63;6228576;22;20723;-66
2022/08/10 01:03:36;;;;;;;6.50;4.00;;;;;;;16.88;76.32;100074.22;6229233;22;20030;-65
2022/08/10 01:06:33;;;;;;;10.07;4.15;;;;;;;16.95;76.56;100078.91;6201612;22;20043;-67
2022/08/10 01:09:13;;;;;;;7.07;3.80;;;;;;;16.86;76.05;100068.97;6076367;23;20374;-68
2022/08/10 01:11:48;;;;;;;5.32;3.80;;;;;;;16.86;76.00;100081.59;6076924;23;20028;-69
2022/08/10 01:14:36;;;;;;;6.13;4.10;;;;;;;16.86;76.39;100078.88;6076374;23;20096;-67
2022/08/10 01:17:10;;;;;;;6.65;3.92;;;;;;;16.82;76.08;100074.75;6076786;23;20021;-67
2022/08/10 01:19:47;;;;;;;7.70;4.68;;;;;;;16.77;76.44;100071.66;6076803;23;20088;-67
2022/08/10 01:22:18;;;;;;;4.85;3.90;;;;;;;16.70;75.86;100065.97;6077300;23;20052;-69
2022/08/10 01:24:55;;;;;;;5.22;3.45;;;;;;;16.69;76.09;100073.19;6004356;23;20053;-69
2022/08/10 01:27:58;;;;;;;6.63;3.80;;;;;;;16.74;76.33;100075.47;6028533;23;20018;-67
2022/08/10 01:30:28;;;;;;;4.97;3.67;;;;;;;16.65;76.24;100062.84;5990653;23;20411;-66
2022/08/10 01:32:56;;;;;;;6.28;4.10;;;;;;;16.62;75.80;100069.34;5990841;23;20086;-65
2022/08/10 01:35:29;;;;;;;4.63;3.80;;;;;;;16.62;75.91;100068.50;5967029;23;20019;-66
2022/08/10 01:38:18;;;;;;;5.97;4.18;;;;;;;16.66;75.92;100080.69;5990810;23;20023;-66
2022/08/10 01:41:01;;;;;;;5.97;3.70;;;;;;;16.65;75.37;100082.53;5990635;23;20019;-67
2022/08/10 01:43:29;;;;;;;6.43;3.77;;;;;;;16.58;75.51;100080.50;5990443;23;20034;-64
2022/08/10 01:45:56;;;;;;;4.10;3.47;;;;;;;16.58;75.41;100083.19;6097536;23;20035;-64
2022/08/10 01:48:30;;;;;;;6.13;3.50;;;;;;;16.59;75.16;100079.53;6135503;23;20017;-64
2022/08/10 01:51:06;;;;;;;5.55;3.53;;;;;;;16.60;75.17;100084.75;6085292;23;20035;-63
2022/08/10 01:53:42;;;;;;;3.63;3.33;;;;;;;16.59;74.78;100084.91;6134530;23;20020;-64
2022/08/10 01:56:12;;;;;;;3.67;3.13;;;;;;;16.54;74.67;100082.59;6135560;23;20020;-63
2022/08/10 01:58:37;;;;;;;5.72;3.88;;;;;;;16.54;74.73;100088.00;6135392;23;20036;-63
2022/08/10 02:01:06;;;;;;;10.38;3.78;;;;;;;16.55;74.72;100080.78;6135017;23;20013;-64
2022/08/10 02:03:34;;;;;;;6.03;3.05;;;;;;;16.57;74.55;100092.25;6110661;23;20048;-63
2022/08/10 02:06:01;;;;;;;6.75;4.07;;;;;;;16.59;74.38;100092.97;6069606;22;20016;-63
2022/08/10 02:08:29;;;;;;;6.10;3.67;;;;;;;16.60;74.46;100098.19;6201286;22;20015;-65
2022/08/10 02:10:56;;;;;;;4.88;2.85;;;;;;;16.61;73.94;100096.34;6175769;22;20019;-65
2022/08/10 02:13:42;;;;;;;8.18;3.85;;;;;;;16.60;73.79;100100.03;6206095;22;20047;-66
2022/08/10 02:16:08;;;;;;;6.07;3.83;;;;;;;16.59;73.14;100095.66;6200954;22;20102;-63
2022/08/10 02:18:34;;;;;;;5.03;4.05;;;;;;;16.58;73.37;100099.34;6201537;22;20039;-66
2022/08/10 02:21:03;;;;;;;9.20;3.95;;;;;;;16.56;72.85;100099.47;6176344;22;20011;-67
2022/08/10 02:23:32;;;;;;;10.75;4.30;;;;;;;16.62;73.21;100103.47;6229057;22;20026;-66
2022/08/10 02:25:59;;;;;;;5.22;3.70;;;;;;;16.69;73.14;100108.19;6201572;22;20350;-67
2022/08/10 02:28:26;;;;;;;10.27;3.83;;;;;;;16.77;72.75;100104.81;6201382;22;20019;-68
2022/08/10 02:30:55;;;;;;;7.88;3.90;;;;;;;16.87;72.30;100103.00;6201346;22;20403;-69
2022/08/10 02:33:24;;;;;;;3.92;3.08;;;;;;;16.95;71.93;100102.28;6229547;22;20529;-68
2022/08/10 02:35:52;;;;;;;9.40;4.13;;;;;;;17.03;71.60;100103.31;6229149;22;20458;-69
2022/08/10 02:38:24;;;;;;;8.35;4.65;;;;;;;17.16;71.71;100105.72;6229123;22;20026;-69
2022/08/10 02:40:54;;;;;;;7.10;4.28;;;;;;;17.27;71.31;100112.81;6201946;22;20086;-71
2022/08/10 02:43:24;;;;;;;5.22;3.88;;;;;;;17.34;71.08;100104.03;6204335;22;20098;-68
2022/08/10 02:45:59;;;;;;;5.72;3.88;;;;;;;17.42;70.76;100106.03;6203720;22;20027;-68
2022/08/10 02:48:34;;;;;;;6.20;4.30;;;;;;;17.47;70.48;100111.00;6176960;22;20462;-71
2022/08/10 02:51:07;;;;;;;8.25;4.57;;;;;;;17.48;69.59;100112.72;6177286;22;20079;-71
2022/08/10 02:53:40;;;;;;;7.68;3.65;;;;;;;17.49;69.63;100111.72;6229455;22;20409;-71
2022/08/10 02:56:22;;;;;;;8.55;4.15;;;;;;;17.50;69.38;100106.16;6152104;22;20015;-70
2022/08/10 02:58:54;;;;;;;5.35;3.60;;;;;;;17.41;69.89;100109.72;6177814;22;20461;-71
2022/08/10 03:01:24;;;;;;;5.03;3.80;;;;;;;17.34;69.82;100108.59;6176713;22;20011;-70
2022/08/10 03:03:56;;;;;;;11.95;3.97;;;;;;;17.28;70.63;100109.97;6175337;22;20059;-71
2022/08/10 03:06:24;;;;;;;6.82;3.85;;;;;;;17.23;70.97;100111.41;6227530;22;20015;-71
2022/08/10 03:08:50;;;;;;;5.60;3.97;;;;;;;17.18;70.87;100110.97;6175426;22;20094;-71
2022/08/10 03:11:21;;;;;;;6.90;4.00;;;;;;;17.17;71.18;100098.47;6175286;22;20012;-72
2022/08/10 03:13:50;;;;;;;6.85;3.85;;;;;;;17.17;70.85;100106.56;6227752;22;20020;-72
2022/08/10 03:16:17;;;;;;;6.78;4.53;;;;;;;17.20;71.40;100111.69;6227801;22;20462;-72
2022/08/10 03:18:42;;;;;;;6.55;4.22;;;;;;;17.23;71.09;100106.88;6175535;22;20350;-70
2022/08/10 03:21:08;;;;;;;6.40;4.70;;;;;;;17.27;71.05;100104.72;6175462;22;20087;-69
2022/08/10 03:23:33;;;;;;;11.68;4.60;;;;;;;17.30;70.82;100113.41;6228902;22;20023;-67
2022/08/10 03:25:59;;;;;;;7.43;4.47;;;;;;;17.39;70.80;100112.53;6229016;22;20421;-66
2022/08/10 03:28:31;;;;;;;9.43;4.43;;;;;;;17.61;70.43;100107.84;6151150;22;20100;-68
2022/08/10 03:30:58;;;;;;;19.50;5.13;;;;;;;17.90;69.84;100105.16;6228704;22;20019;-68
2022/08/10 03:33:26;;;;;;;9.55;5.15;;;;;;;18.21;68.82;100103.94;6228623;22;20011;-67
2022/08/10 03:35:51;;;;;;;7.55;4.60;;;;;;;18.40;67.88;100105.69;6201518;22;20401;-68
2022/08/10 03:38:15;;;;;;;10.02;4.60;;;;;;;18.51;67.24;100105.50;6229497;22;20350;-66
2022/08/10 03:40:43;;;;;;;9.27;4.95;;;;;;;18.56;66.59;100108.63;6203203;22;20015;-67
2022/08/10 03:43:10;;;;;;;9.75;4.75;;;;;;;18.56;66.84;100111.34;6230101;22;20415;-67
2022/08/10 03:45:37;;;;;;;6.35;4.25;;;;;;;18.53;66.54;100108.91;6230434;22;20501;-67
2022/08/10 03:48:04;;;;;;;7.55;4.63;;;;;;;18.60;66.75;100114.63;6203190;22;20025;-68
2022/08/10 03:50:30;;;;;;;9.90;4.50;;;;;;;18.81;66.11;100112.53;6203251;22;20023;-67
2022/08/10 03:52:55;;;;;;;8.55;4.68;;;;;;;19.16;65.33;100109.88;6230193;22;20016;-66
2022/08/10 03:55:21;;;;;;;11.52;4.80;;;;;;;19.50;63.98;100109.22;6203185;22;20015;-67
2022/08/10 03:57:47;;;;;;;8.45;4.63;;;;;;;19.85;63.10;100109.19;6141402;23;20475;-68
2022/08/10 04:00:14;;;;;;;10.50;4.25;;;;;;;20.12;61.86;100104.63;6166880;23;20016;-67
2022/08/10 04:02:40;;;;;;;9.38;5.55;;;;;;;20.33;61.28;100107.78;6116536;23;20020;-67
2022/08/10 04:05:05;;;;;;;11.68;5.30;;;;;;;20.41;60.37;100102.47;6141904;23;20024;-66
2022/08/10 04:07:31;;;;;;;8.45;4.45;;;;;;;20.39;60.38;100101.78;6141552;23;20054;-67
2022/08/10 04:09:55;;;;;;;7.00;4.32;;;;;;;20.34;60.11;100108.63;6116904;23;20522;-67
2022/08/10 04:12:20;;;;;;;10.43;4.50;;;;;;;20.25;60.40;100096.91;6166740;23;20456;-67
2022/08/10 04:14:45;;;;;;;9.55;4.40;;;;;;;20.10;61.10;100109.34;6141931;23;20020;-67
2022/08/10 04:17:10;;;;;;;18.48;5.28;;;;;;;19.94;61.21;100105.53;6142114;23;20075;-66
2022/08/10 04:19:45;;;;;;;6.57;4.32;;;;;;;19.86;61.86;100102.75;6166487;23;20049;-68
2022/08/10 04:22:22;;;;;;;14.48;4.60;;;;;;;19.77;62.22;100103.69;6166533;23;20115;-68
2022/08/10 04:24:52;;;;;;;11.82;4.30;;;;;;;19.75;61.62;100119.22;6141585;23;20041;-69
2022/08/10 04:27:17;;;;;;;7.35;4.30;;;;;;;19.96;61.53;100115.34;6166766;23;20035;-69
2022/08/10 04:29:43;;;;;;;6.45;3.92;;;;;;;20.33;60.67;100120.47;6222941;22;20022;-69
2022/08/10 04:32:09;;;;;;;7.32;4.30;;;;;;;20.81;58.95;100128.03;6229911;22;20019;-69
2022/08/10 04:34:35;;;;;;;7.00;4.28;;;;;;;21.33;57.10;100132.28;6202826;22;20022;-69
2022/08/10 04:37:04;;;;;;;11.32;3.80;;;;;;;21.92;55.99;100126.72;6177042;22;20026;-69
2022/08/10 04:39:29;;;;;;;9.52;4.10;;;;;;;22.50;54.06;100122.91;6230126;22;20023;-68
2022/08/10 04:41:55;;;;;;;6.78;3.83;;;;;;;23.04;52.43;100123.91;6177399;22;20019;-68
2022/08/10 04:44:19;;;;;;;5.95;4.05;;;;;;;23.54;50.84;100134.34;6202664;22;20095;-69
2022/08/10 04:46:44;;;;;;;9.07;4.18;;;;;;;23.86;49.83;100131.38;6177182;22;20043;-69
2022/08/10 04:49:09;;;;;;;6.80;3.78;;;;;;;24.20;49.17;100130.03;6202646;22;20019;-68
2022/08/10 04:51:34;;;;;;;6.75;4.20;;;;;;;24.64;48.32;100126.53;6229600;22;20095;-68
2022/08/10 04:53:58;;;;;;;5.35;3.60;;;;;;;24.94;46.95;100122.78;6202518;22;20095;-68
2022/08/10 04:56:23;;;;;;;5.80;4.05;;;;;;;24.93;46.30;100132.00;6230192;22;20035;-70
2022/08/10 04:58:48;;;;;;;4.85;3.58;;;;;;;24.59;46.28;100130.69;6230522;22;20031;-70
2022/08/10 05:01:12;;;;;;;4.78;3.03;;;;;;;24.22;47.26;100134.31;6177128;22;20354;-69
2022/08/10 05:03:37;;;;;;;5.07;3.22;;;;;;;23.72;48.22;100136.75;6229773;22;20069;-68
2022/08/10 05:06:02;;;;;;;5.60;3.53;;;;;;;23.23;49.67;100128.06;6202674;22;20454;-68
2022/08/10 05:08:27;;;;;;;3.40;3.05;;;;;;;22.81;50.28;100121.97;6229443;22;20450;-68
2022/08/10 05:10:52;;;;;;;11.63;3.58;;;;;;;22.46;51.03;100125.13;6202263;22;20020;-68
2022/08/10 05:13:17;;;;;;;8.68;3.30;;;;;;;22.17;52.17;100128.44;6176889;22;20373;-68
2022/08/10 05:15:44;;;;;;;5.00;3.33;;;;;;;21.93;52.67;100112.97;6229482;22;20408;-67
2022/08/10 05:18:08;;;;;;;7.35;3.30;;;;;;;21.77;52.50;100118.44;6229788;22;20054;-70
2022/08/10 05:20:33;;;;;;;5.30;3.53;;;;;;;21.67;52.95;100121.28;6176976;22;20015;-70
2022/08/10 05:22:58;;;;;;;5.07;3.08;;;;;;;21.62;53.57;100111.97;6202493;22;20019;-70
2022/08/10 05:25:23;;;;;;;7.30;3.25;;;;;;;21.54;52.84;100106.56;6202303;22;20043;-72
2022/08/10 05:27:48;;;;;;;11.85;4.13;;;;;;;21.41;53.73;100106.19;6177001;22;20377;-71
2022/08/10 05:30:15;;;;;;;5.03;3.35;;;;;;;21.28;53.36;100103.97;6202238;22;20027;-69
2022/08/10 05:32:40;;;;;;;5.97;2.92;;;;;;;21.13;52.95;100103.72;6176704;22;20015;-69
2022/08/10 05:35:06;;;;;;;4.32;3.28;;;;;;;21.00;52.71;100106.06;6177061;22;20017;-69
2022/08/10 05:37:31;;;;;;;6.20;3.22;;;;;;;20.93;53.11;100111.31;6229535;22;20016;-68
2022/08/10 05:39:56;;;;;;;5.10;3.53;;;;;;;20.82;53.23;100108.06;6176929;22;20050;-70
2022/08/10 05:42:22;;;;;;;5.78;3.60;;;;;;;20.70;53.84;100110.22;6176739;22;20012;-69
2022/08/10 05:44:47;;;;;;;10.15;3.85;;;;;;;20.61;53.58;100101.19;6176690;22;20102;-69
2022/08/10 05:47:12;;;;;;;7.10;3.15;;;;;;;20.57;53.98;100110.66;6176947;22;20092;-69
2022/08/10 05:49:37;;;;;;;5.70;2.88;;;;;;;20.70;55.00;100112.91;6202458;22;20476;-70
2022/08/10 05:52:02;;;;;;;6.10;3.28;;;;;;;21.05;55.58;100119.13;6202654;22;20827;-67
2022/08/10 05:54:27;;;;;;;4.85;3.20;;;;;;;21.44;54.39;100128.41;6202461;22;20460;-67
2022/08/10 05:56:52;;;;;;;5.97;3.45;;;;;;;21.89;53.10;100119.78;6201951;22;20359;-66
2022/08/10 05:59:18;;;;;;;7.43;3.85;;;;;;;22.41;52.31;100124.81;6202136;22;20026;-68
2022/08/10 06:01:45;;;;;;;7.60;3.72;;;;;;;22.74;50.95;100131.84;6228544;22;20015;-67
2022/08/10 06:04:16;;;;;;;11.43;3.17;;;;;;;22.83;50.14;100142.69;6229072;22;20087;-68
2022/08/10 06:06:44;;;;;;;4.65;3.50;;;;;;;22.85;50.06;100140.66;6151745;22;20472;-75
2022/08/10 06:09:10;;;;;;;9.63;3.53;;;;;;;22.89;49.91;100142.00;6152077;22;20015;-74
2022/08/10 06:11:37;;;;;;;10.90;4.13;;;;;;;23.09;49.72;100135.97;6152235;22;20012;-74
2022/08/10 06:16:48;;;;;;;5.22;3.17;;;;;;;23.71;48.14;100154.13;6229218;22;20098;-74
2022/08/10 06:19:13;;;;;;;4.53;2.85;;;;;;;24.14;47.14;100158.88;6229053;22;20091;-72
2022/08/10 06:21:39;;;;;;;6.60;3.30;;;;;;;24.60;45.87;100164.25;6202205;22;20020;-74
2022/08/10 06:24:09;;;;;;;11.93;3.90;;;;;;;25.38;44.25;100169.06;6229158;22;20023;-74
2022/08/10 06:26:34;;;;;;;5.13;3.35;;;;;;;26.66;41.99;100164.38;6229220;22;20016;-72
2022/08/10 06:29:08;;;;;;;5.93;3.20;;;;;;;27.73;39.51;100164.66;6229327;22;20019;-73
2022/08/10 06:31:48;;;;;;;5.82;3.40;;;;;;;28.47;39.17;100175.47;6203056;22;20015;-73
2022/08/10 06:34:14;;;;;;;4.30;3.42;;;;;;;29.93;35.70;100175.75;6176418;22;20016;-74
2022/08/10 06:36:42;;;;;;;3.33;2.97;;;;;;;31.24;32.87;100173.72;6176791;22;20039;-73
2022/08/10 06:39:07;;;;;;;4.07;3.38;;;;;;;31.90;31.72;100178.31;6180297;22;20024;-74
2022/08/10 06:41:34;;;;;;;5.05;3.50;;;;;;;32.23;31.06;100175.06;6235134;22;20100;-74
2022/08/10 06:44:04;;;;;;;7.30;3.70;;;;;;;31.68;31.91;100185.44;6176926;22;20046;-73
2022/08/10 06:46:33;;;;;;;5.25;3.72;;;;;;;32.08;31.58;100178.22;6202147;22;20039;-72
2022/08/10 06:49:01;;;;;;;6.70;3.80;;;;;;;32.74;30.17;100179.88;6202977;22;20168;-71
2022/08/10 06:51:30;;;;;;;4.55;3.65;;;;;;;32.78;29.87;100189.38;6202635;22;20012;-73
2022/08/10 06:54:05;;;;;;;5.88;4.20;;;;;;;33.47;28.67;100181.22;6202341;22;20087;-72
2022/08/10 06:56:33;;;;;;;6.88;3.50;;;;;;;33.86;28.23;100172.03;6177168;22;20102;-72
2022/08/10 06:59:17;;;;;;;7.50;3.70;;;;;;;34.54;27.63;100182.03;6202266;22;20015;-71
2022/08/10 07:01:46;;;;;;;8.93;3.80;;;;;;;35.39;26.50;100178.00;6202197;22;20019;-71
2022/08/10 07:04:17;;;;;;;6.40;3.90;;;;;;;36.17;25.57;100176.63;6229186;22;20020;-71
2022/08/10 07:06:45;;;;;;;8.00;4.65;;;;;;;36.36;24.40;100275.09;6202278;22;20106;-73
2022/08/10 07:09:15;;;;;;;7.63;3.80;;;;;;;36.36;24.78;100261.22;6176767;22;20018;-72
2022/08/10 07:11:42;;;;;;;7.05;3.80;;;;;;;35.37;24.94;100182.97;6202760;22;20015;-71
2022/08/10 07:14:09;;;;;;;6.18;3.72;;;;;;;34.69;25.22;100186.16;6204200;22;20016;-71
2022/08/10 07:16:35;;;;;;;5.03;4.10;;;;;;;34.34;25.53;100187.28;6231284;22;20042;-72
2022/08/10 07:19:00;;;;;;;3.70;3.40;;;;;;;33.78;26.11;100182.66;6231110;22;20069;-72
2022/08/10 07:21:27;;;;;;;7.95;3.90;;;;;;;33.44;27.11;100185.28;6231164;22;20451;-74
2022/08/10 07:23:54;;;;;;;4.03;3.63;;;;;;;33.74;26.39;100181.47;6203624;22;20090;-73
2022/08/10 07:26:21;;;;;;;3.92;3.58;;;;;;;33.27;26.40;100178.88;6203598;22;20114;-75
2022/08/10 07:28:48;;;;;;;9.32;3.83;;;;;;;31.94;28.77;100187.78;6153636;22;20015;-72
2022/08/10 07:31:17;;;;;;;5.53;3.63;;;;;;;31.33;30.58;100188.84;6231107;22;20098;-72
2022/08/10 07:33:43;;;;;;;11.93;4.32;;;;;;;31.41;29.32;100179.41;6204219;22;20018;-72
2022/08/10 07:36:09;;;;;;;7.38;4.40;;;;;;;30.71;30.42;100194.59;6153477;22;20011;-72
2022/08/10 07:38:36;;;;;;;10.63;4.25;;;;;;;29.74;31.71;100188.56;6203836;22;20351;-74
2022/08/10 07:41:04;;;;;;;9.40;4.18;;;;;;;28.69;33.42;100183.44;6230808;22;20446;-74
2022/08/10 07:43:34;;;;;;;8.52;3.50;;;;;;;27.99;34.07;100191.25;6203627;22;20351;-73
2022/08/10 07:46:01;;;;;;;5.72;3.35;;;;;;;29.00;33.27;100185.53;6204196;22;20023;-72
2022/08/10 07:48:30;;;;;;;4.70;3.40;;;;;;;30.07;31.33;100185.63;6178321;22;20094;-72
2022/08/10 07:50:58;;;;;;;4.50;3.70;;;;;;;31.08;29.53;100185.31;6203420;22;20401;-73
2022/08/10 07:53:29;;;;;;;6.93;4.30;;;;;;;31.70;28.53;100183.28;6230772;22;20089;-74
2022/08/10 07:55:56;;;;;;;7.45;3.85;;;;;;;31.47;29.24;100181.25;6230734;22;20434;-74
2022/08/10 07:58:26;;;;;;;7.63;3.85;;;;;;;32.01;28.67;100177.50;6153140;22;20103;-73
2022/08/10 08:00:52;;;;;;;4.53;4.13;;;;;;;32.41;27.52;100169.41;6230498;22;20454;-73
2022/08/10 08:03:23;;;;;;;6.65;3.90;;;;;;;33.71;26.78;100179.19;6203472;22;20333;-75
2022/08/10 08:05:48;;;;;;;3.67;3.33;;;;;;;35.37;24.00;100177.44;6203435;22;20016;-75
2022/08/10 08:08:14;;;;;;;6.57;3.95;;;;;;;36.63;22.17;100265.91;6203440;22;20016;-75
2022/08/10 08:10:40;;;;;;;7.72;3.58;;;;;;;37.01;20.91;100257.31;6203602;22;20016;-74
2022/08/10 08:13:05;;;;;;;8.48;4.45;;;;;;;36.41;21.70;100235.44;6203423;22;20100;-74
2022/08/10 08:15:32;;;;;;;5.63;3.65;;;;;;;35.79;22.28;100161.00;6231342;22;20015;-75
2022/08/10 08:18:00;;;;;;;8.45;3.88;;;;;;;36.95;21.76;100176.94;6203430;22;20015;-74
2022/08/10 08:20:25;;;;;;;4.35;3.80;;;;;;;38.25;19.96;100160.94;6203646;22;20019;-76
2022/08/10 08:22:51;;;;;;;7.55;4.50;;;;;;;39.29;18.79;100155.69;6153208;22;20022;-75
2022/08/10 08:25:18;;;;;;;7.80;4.50;;;;;;;40.26;18.10;100165.13;6203458;22;20400;-75
2022/08/10 08:27:45;;;;;;;7.90;4.68;;;;;;;41.29;17.62;100167.44;6203273;22;20016;-75
2022/08/10 08:30:11;;;;;;;4.80;4.40;;;;;;;41.94;16.97;100164.81;6203050;22;20350;-74
2022/08/10 08:32:39;;;;;;;6.10;5.20;;;;;;;42.96;16.11;100168.66;6230466;22;20473;-75
2022/08/10 08:35:07;;;;;;;5.85;5.10;;;;;;;44.43;14.83;100160.53;6230047;22;20454;-74
2022/08/10 08:37:34;;;;;;;14.15;6.13;;;;;;;45.71;14.08;100164.16;6230352;22;20093;-77
2022/08/10 08:40:03;;;;;;;7.03;6.28;;;;;;;45.89;13.22;100162.19;6177419;22;20043;-75
2022/08/10 08:43:05;;;;;;;6.85;6.25;;;;;;;46.45;12.75;100168.75;6184999;22;20012;-75
2022/08/10 08:46:11;;;;;;;6.78;6.18;;;;;;;45.72;13.89;100168.59;6202934;22;20456;-75
2022/08/10 08:48:57;;;;;;;5.72;5.28;;;;;;;44.24;15.11;100164.69;6203250;22;20043;-75
2022/08/10 08:52:05;;;;;;;5.90;5.43;;;;;;;43.45;16.05;100157.53;6203098;22;20019;-76
2022/08/10 08:54:41;;;;;;;5.47;4.93;;;;;;;40.98;17.02;100138.97;6176830;22;20473;-75
2022/08/10 08:57:28;;;;;;;4.95;4.60;;;;;;;38.58;19.28;100217.22;6202962;22;20019;-74
2022/08/10 09:00:13;;;;;;;8.70;4.70;;;;;;;36.18;20.73;100127.47;6202765;22;20419;-76
2022/08/10 09:03:08;;;;;;;5.13;4.63;;;;;;;35.01;22.85;100130.94;6229498;22;20107;-73
2022/08/10 09:06:08;;;;;;;14.63;5.45;;;;;;;34.50;23.70;100144.06;6203098;22;20018;-69
2022/08/10 09:08:45;;;;;;;5.55;4.45;;;;;;;33.37;24.19;100134.84;6229396;22;20011;-67
2022/08/10 09:11:37;;;;;;;8.98;4.55;;;;;;;33.23;25.09;100136.22;6229930;22;20090;-69
2022/08/10 09:14:29;;;;;;;6.20;4.20;;;;;;;32.75;24.91;100126.34;6151970;22;20035;-69
2022/08/10 09:17:23;;;;;;;4.95;4.22;;;;;;;33.72;24.48;100125.56;6176852;22;20022;-74
2022/08/10 09:20:00;;;;;;;8.55;4.40;;;;;;;34.14;23.71;100126.88;6167054;22;20158;-75
2022/08/10 09:22:36;;;;;;;8.77;4.10;;;;;;;33.57;23.34;100122.50;6230312;22;20023;-73
2022/08/10 09:25:16;;;;;;;6.32;3.80;;;;;;;33.18;22.88;100125.88;6203599;22;20023;-74
2022/08/10 09:27:44;;;;;;;5.82;4.10;;;;;;;33.79;23.01;100115.19;6230397;22;20026;-74
2022/08/10 09:30:14;;;;;;;4.28;3.88;;;;;;;33.97;22.39;100120.50;6203320;22;20016;-75
2022/08/10 09:33:02;;;;;;;3.90;3.60;;;;;;;33.89;22.36;100112.59;6202565;22;20082;-72
2022/08/10 09:35:38;;;;;;;4.45;4.05;;;;;;;34.26;22.61;100106.59;6228454;22;20406;-72
2022/08/10 09:38:21;;;;;;;7.15;4.00;;;;;;;35.03;22.79;100106.56;6176997;22;20015;-74
2022/08/10 09:41:08;;;;;;;4.20;3.72;;;;;;;35.95;21.75;100100.94;6202078;22;20023;-74
2022/08/10 09:43:54;;;;;;;10.32;4.03;;;;;;;38.15;19.87;100108.03;6178084;22;20048;-73
2022/08/10 09:46:25;;;;;;;9.98;4.25;;;;;;;39.79;17.02;100102.38;6231443;22;20024;-71
2022/08/10 09:49:10;;;;;;;4.80;4.30;;;;;;;40.22;17.45;100108.16;6203083;22;20015;-71
2022/08/10 09:51:47;;;;;;;5.30;4.32;;;;;;;39.84;17.11;100118.25;6177761;22;20091;-73
2022/08/10 09:54:25;;;;;;;6.80;4.30;;;;;;;39.09;17.33;100112.81;6177738;22;20107;-72
2022/08/10 09:57:25;;;;;;;4.30;3.90;;;;;;;38.55;18.11;100111.88;6203428;22;20019;-73
2022/08/10 10:00:01;;;;;;;7.55;4.68;;;;;;;38.56;18.39;100108.81;6171777;22;20081;-72
2022/08/10 10:02:50;;;;;;;4.93;4.30;;;;;;;38.59;18.35;100105.47;6230100;22;20665;-72
2022/08/10 10:05:15;;;;;;;5.97;4.63;;;;;;;37.40;18.69;100101.22;6177736;22;20011;-73
2022/08/10 10:07:48;;;;;;;9.65;4.22;;;;;;;36.35;19.53;100190.13;6229852;22;20019;-71
2022/08/10 10:10:19;;;;;;;4.07;3.70;;;;;;;35.24;20.36;100098.22;6229392;22;20091;-71
2022/08/10 10:12:58;;;;;;;7.80;4.03;;;;;;;34.43;21.73;100099.09;6229808;22;20023;-71
2022/08/10 10:15:29;;;;;;;4.38;3.60;;;;;;;33.46;22.52;100091.91;6229906;22;20015;-71
2022/08/10 10:18:19;;;;;;;4.70;3.90;;;;;;;33.10;23.23;100093.09;6229840;22;20022;-72
2022/08/10 10:21:15;;;;;;;4.97;3.60;;;;;;;32.76;23.34;100081.09;6229756;22;20064;-71
2022/08/10 10:23:39;;;;;;;6.78;3.22;;;;;;;32.48;23.46;100089.28;6204076;22;20095;-72
2022/08/10 10:26:40;;;;;;;4.28;3.30;;;;;;;32.78;23.99;100091.88;6203340;22;20035;-73
2022/08/10 10:29:27;;;;;;;4.90;3.67;;;;;;;32.39;23.86;100094.31;6203581;22;20319;-74
2022/08/10 10:32:15;;;;;;;4.47;3.30;;;;;;;32.38;23.59;100089.88;6213141;22;20016;-74
2022/08/10 10:34:57;;;;;;;4.43;3.10;;;;;;;31.97;24.66;100087.19;6230690;22;20027;-74
2022/08/10 10:37:24;;;;;;;6.90;4.25;;;;;;;31.62;25.49;100087.09;6230451;22;20015;-74
2022/08/10 10:39:53;;;;;;;5.53;3.17;;;;;;;31.38;25.20;100084.25;6229777;22;20030;-73
2022/08/10 10:42:42;;;;;;;4.97;3.22;;;;;;;31.27;25.31;100092.50;6228492;22;20099;-68
2022/08/10 10:45:55;;;;;;;6.32;4.55;;;;;;;31.09;26.30;100084.28;6227804;22;20020;-70
2022/08/10 10:48:32;;;;;;;5.13;2.97;;;;;;;30.83;26.21;100089.00;6202410;22;20019;-68
2022/08/10 10:51:08;;;;;;;8.23;3.40;;;;;;;30.71;26.35;100087.25;6152425;22;20026;-69
2022/08/10 10:53:43;;;;;;;4.28;3.40;;;;;;;30.35;26.55;100086.16;6229859;22;20046;-69
2022/08/10 10:56:32;;;;;;;5.50;3.67;;;;;;;30.13;27.09;100093.16;6177780;22;20016;-69
2022/08/10 10:59:31;;;;;;;3.80;3.45;;;;;;;29.52;27.69;100078.19;6203003;22;20347;-67
2022/08/10 11:02:31;;;;;;;3.22;2.92;;;;;;;29.13;28.11;100081.97;6202454;22;20466;-69
2022/08/10 11:05:03;;;;;;;3.42;3.17;;;;;;;28.64;28.68;100084.50;6203312;22;20012;-68
2022/08/10 11:07:43;;;;;;;8.00;3.63;;;;;;;28.50;29.46;100075.44;6231204;22;20019;-69
2022/08/10 11:10:12;;;;;;;4.07;3.08;;;;;;;28.52;30.13;100082.41;6178777;22;20332;-78
2022/08/10 11:12:56;;;;;;;3.70;3.40;;;;;;;28.87;29.03;100082.97;6204283;22;20015;-70
2022/08/10 11:15:30;;;;;;;6.53;3.80;;;;;;;28.42;28.95;100086.66;6204110;22;20395;-72
2022/08/10 11:18:14;;;;;;;3.65;3.03;;;;;;;28.22;29.17;100083.13;6230784;22;20314;-70
2022/08/10 11:20:51;;;;;;;4.03;3.28;;;;;;;27.90;29.13;100076.56;6230868;22;20051;-73
2022/08/10 11:23:38;;;;;;;9.93;3.92;;;;;;;27.95;30.02;100080.34;6178651;22;20015;-71
2022/08/10 11:26:21;;;;;;;8.73;3.78;;;;;;;28.05;29.80;100086.25;6203815;22;20027;-70
2022/08/10 11:28:53;;;;;;;4.53;3.08;;;;;;;27.95;29.87;100085.84;6230711;22;20043;-70
2022/08/10 11:31:32;;;;;;;5.90;3.13;;;;;;;27.98;29.62;100088.16;6203966;22;20046;-70
2022/08/10 11:34:07;;;;;;;2.92;2.67;;;;;;;27.93;29.39;100084.34;6203882;22;20020;-66
2022/08/10 11:36:35;;;;;;;6.15;3.63;;;;;;;27.80;29.34;100075.09;6204105;22;20020;-68
2022/08/10 11:39:24;;;;;;;4.63;3.15;;;;;;;27.83;29.85;100073.81;6203584;22;20019;-69
2022/08/10 11:41:57;;;;;;;5.65;3.30;;;;;;;27.78;29.95;100074.44;6230829;22;20020;-68
2022/08/10 11:44:51;;;;;;;7.72;3.42;;;;;;;27.72;30.12;100072.56;6117628;23;20021;-72
2022/08/10 11:47:19;;;;;;;8.35;3.13;;;;;;;27.68;29.78;100076.75;6163562;23;20027;-72